createdAt,value
2018-05-17T00:00:01.801Z,70.10
2018-05-17T00:02:30.967Z,73.10
2018-05-17T00:05:00.098Z,70.60
2018-05-17T00:07:29.259Z,70.37
2018-05-17T00:09:58.449Z,62.90
2018-05-17T00:12:27.603Z,57.87
2018-05-17T00:14:56.770Z,58.80
2018-05-17T00:17:25.897Z,57.40
2018-05-17T00:19:55.044Z,55.07
2018-05-17T00:22:24.192Z,52.50
2018-05-17T00:24:53.328Z,51.07
2018-05-17T00:27:22.512Z,46.70
2018-05-17T00:29:51.684Z,49.27
2018-05-17T00:32:20.836Z,62.40
2018-05-17T00:34:49.952Z,71.17
2018-05-17T00:37:19.139Z,70.27
2018-05-17T00:39:48.297Z,58.23
2018-05-17T00:42:17.448Z,52.73
2018-05-17T00:44:46.648Z,48.00
2018-05-17T00:47:15.746Z,55.17
2018-05-17T00:49:44.944Z,66.53
2018-05-17T00:52:14.133Z,94.53
2018-05-17T00:54:43.271Z,89.07
2018-05-17T00:57:12.392Z,68.17
2018-05-17T00:59:41.519Z,51.87
2018-05-17T01:02:10.688Z,52.00
2018-05-17T01:04:39.833Z,47.83
2018-05-17T01:07:08.959Z,47.47
2018-05-17T01:09:38.158Z,48.87
2018-05-17T01:12:07.335Z,53.27
2018-05-17T01:14:36.461Z,51.20
2018-05-17T01:17:05.853Z,46.27
2018-05-17T01:19:34.987Z,46.47
2018-05-17T01:22:04.108Z,47.37
2018-05-17T01:24:33.254Z,49.00
2018-05-17T01:27:02.436Z,48.07
2018-05-17T01:29:31.572Z,64.20
2018-05-17T01:32:00.752Z,59.37
2018-05-17T01:34:30.017Z,61.50
2018-05-17T01:37:04.984Z,62.10
2018-05-17T01:39:34.124Z,51.57
2018-05-17T01:42:03.254Z,51.37
2018-05-17T01:44:32.444Z,58.80
2018-05-17T01:47:01.565Z,93.33
2018-05-17T01:49:30.709Z,118.17
2018-05-17T01:51:59.880Z,123.57
2018-05-17T01:54:29.036Z,104.90
2018-05-17T01:56:58.204Z,76.60
2018-05-17T01:59:27.365Z,66.50
2018-05-17T02:01:56.513Z,94.17
2018-05-17T02:04:25.765Z,82.67
2018-05-17T02:06:54.916Z,65.60
2018-05-17T02:09:24.060Z,92.10
2018-05-17T02:11:53.232Z,132.60
2018-05-17T02:14:22.412Z,146.17
2018-05-17T02:16:51.540Z,131.77
2018-05-17T02:19:20.668Z,123.77
2018-05-17T02:21:49.853Z,123.57
2018-05-17T02:24:19.008Z,111.77
2018-05-17T02:26:48.161Z,127.03
2018-05-17T02:29:17.344Z,136.73
2018-05-17T02:31:46.478Z,135.17
2018-05-17T02:34:15.677Z,133.07
2018-05-17T02:36:44.824Z,136.27
2018-05-17T02:39:13.970Z,138.43
2018-05-17T02:41:43.192Z,136.10
2018-05-17T02:44:12.304Z,105.00
2018-05-17T02:46:41.452Z,104.10
2018-05-17T02:49:10.650Z,140.97
2018-05-17T02:51:39.877Z,138.87
2018-05-17T02:54:09.002Z,150.67
2018-05-17T02:56:38.136Z,142.07
2018-05-17T02:59:07.302Z,142.47
2018-05-17T03:01:36.508Z,128.57
2018-05-17T03:04:05.644Z,147.13
2018-05-17T03:06:34.800Z,128.03
2018-05-17T03:09:05.855Z,134.17
2018-05-17T03:11:34.998Z,167.57
2018-05-17T03:14:04.157Z,134.73
2018-05-17T03:16:33.360Z,139.13
2018-05-17T03:19:02.509Z,111.77
2018-05-17T03:21:31.733Z,129.00
2018-05-17T03:24:00.940Z,99.27
2018-05-17T03:26:30.636Z,139.00
2018-05-17T03:28:59.792Z,134.47
2018-05-17T03:31:28.961Z,131.33
2018-05-17T03:33:58.081Z,142.03
2018-05-17T03:36:27.214Z,141.80
2018-05-17T03:38:56.926Z,135.27
2018-05-17T03:41:26.084Z,137.23
2018-05-17T03:43:55.291Z,146.00
2018-05-17T03:46:24.489Z,136.17
2018-05-17T03:48:53.645Z,139.03
2018-05-17T03:51:22.843Z,149.63
2018-05-17T03:53:51.988Z,143.90
2018-05-17T03:56:21.128Z,151.87
2018-05-17T03:58:50.260Z,133.43
2018-05-17T04:01:25.420Z,124.73
2018-05-17T04:04:00.292Z,115.37
2018-05-17T04:06:34.456Z,96.43
2018-05-17T04:09:05.295Z,116.97
2018-05-17T04:11:34.431Z,121.10
2018-05-17T04:14:03.560Z,113.40
2018-05-17T04:16:32.716Z,113.73
2018-05-17T04:19:01.889Z,90.50
2018-05-17T04:21:31.160Z,97.87
2018-05-17T04:24:00.404Z,95.57
2018-05-17T04:26:29.565Z,104.20
2018-05-17T04:28:58.690Z,139.10
2018-05-17T04:31:27.843Z,145.30
2018-05-17T04:33:57.009Z,179.03
2018-05-17T04:36:26.159Z,157.43
2018-05-17T04:38:55.488Z,149.60
2018-05-17T04:41:24.656Z,181.20
2018-05-17T04:43:54.112Z,184.63
2018-05-17T04:46:23.252Z,169.37
2018-05-17T04:48:52.392Z,200.00
2018-05-17T04:51:21.563Z,170.33
2018-05-17T04:53:50.724Z,144.73
2018-05-17T04:56:19.840Z,123.10
2018-05-17T04:58:49.010Z,105.13
2018-05-17T05:01:18.148Z,106.93
2018-05-17T05:03:47.269Z,117.77
2018-05-17T05:06:16.453Z,105.10
2018-05-17T05:08:45.611Z,109.40
2018-05-17T05:11:14.800Z,143.93
2018-05-17T05:13:43.960Z,209.67
2018-05-17T05:16:13.316Z,174.63
2018-05-17T05:18:42.473Z,222.50
2018-05-17T05:21:11.629Z,149.33
2018-05-17T05:23:40.829Z,106.27
2018-05-17T05:26:09.956Z,81.40
2018-05-17T05:28:39.132Z,87.87
2018-05-17T05:31:08.248Z,94.13
2018-05-17T05:33:37.841Z,74.70
2018-05-17T05:36:07.044Z,74.27
2018-05-17T05:38:36.189Z,89.27
2018-05-17T05:41:05.372Z,124.23
2018-05-17T05:43:34.510Z,114.27
2018-05-17T05:46:03.661Z,148.87
2018-05-17T05:48:32.848Z,164.47
2018-05-17T05:51:01.972Z,100.20
2018-05-17T05:53:31.151Z,117.67
2018-05-17T05:56:00.296Z,68.87
2018-05-17T05:58:29.446Z,82.77
2018-05-17T06:00:58.696Z,81.30
2018-05-17T06:03:28.081Z,103.50
2018-05-17T06:05:57.245Z,133.40
2018-05-17T06:08:26.478Z,162.80
2018-05-17T06:10:55.553Z,190.80
2018-05-17T06:13:24.715Z,77.87
2018-05-17T06:15:53.859Z,103.90
2018-05-17T06:18:23.008Z,64.07
2018-05-17T06:20:52.130Z,51.87
2018-05-17T06:23:21.331Z,63.07
2018-05-17T06:25:50.486Z,52.10
2018-05-17T06:28:19.645Z,73.53
2018-05-17T06:30:48.801Z,236.27
2018-05-17T06:33:17.957Z,119.93
2018-05-17T06:35:47.115Z,72.83
2018-05-17T06:38:16.237Z,129.73
2018-05-17T06:40:45.425Z,95.77
2018-05-17T06:43:14.565Z,72.57
2018-05-17T06:45:43.710Z,61.53
2018-05-17T06:48:12.884Z,77.57
2018-05-17T06:50:42.004Z,60.93
2018-05-17T06:53:11.146Z,76.00
2018-05-17T06:55:40.776Z,130.80
2018-05-17T06:58:10.006Z,129.97
2018-05-17T07:00:39.148Z,85.30
2018-05-17T07:03:08.495Z,79.07
2018-05-17T07:05:37.852Z,79.80
2018-05-17T07:08:06.978Z,79.57
2018-05-17T07:10:36.166Z,74.03
2018-05-17T07:13:05.344Z,73.50
2018-05-17T07:15:34.507Z,75.93
2018-05-17T07:18:03.738Z,67.70
2018-05-17T07:20:32.807Z,74.70
2018-05-17T07:23:01.981Z,67.77
2018-05-17T07:25:31.197Z,96.27
2018-05-17T07:28:00.376Z,89.87
2018-05-17T07:30:29.484Z,43.97
2018-05-17T07:32:58.643Z,80.27
2018-05-17T07:35:27.769Z,75.17
2018-05-17T07:37:56.898Z,80.50
2018-05-17T07:40:26.056Z,76.73
2018-05-17T07:42:55.225Z,86.73
2018-05-17T07:45:24.483Z,100.17
2018-05-17T07:47:53.645Z,99.03
2018-05-17T07:50:22.807Z,88.17
2018-05-17T07:52:51.948Z,106.53
2018-05-17T07:55:21.107Z,109.70
2018-05-17T07:57:50.272Z,126.47
2018-05-17T08:00:19.388Z,94.80
2018-05-17T08:02:48.533Z,81.60
2018-05-17T08:05:17.681Z,81.33
2018-05-17T08:07:46.975Z,95.73
2018-05-17T08:10:16.129Z,90.00
2018-05-17T08:12:45.245Z,86.23
2018-05-17T08:15:14.436Z,91.67
2018-05-17T08:17:43.700Z,130.07
2018-05-17T08:20:12.815Z,95.67
2018-05-17T08:22:41.938Z,137.50
2018-05-17T08:25:11.127Z,120.07
2018-05-17T08:27:40.271Z,115.97
2018-05-17T08:30:09.389Z,190.33
2018-05-17T08:32:38.606Z,150.57
2018-05-17T08:35:07.740Z,130.10
2018-05-17T08:37:36.917Z,163.60
2018-05-17T08:40:06.052Z,105.83
2018-05-17T08:42:35.192Z,180.97
2018-05-17T08:45:04.368Z,123.37
2018-05-17T08:47:33.504Z,96.00
2018-05-17T08:50:03.548Z,122.23
2018-05-17T08:52:32.712Z,117.73
2018-05-17T08:55:01.907Z,127.80
2018-05-17T08:57:31.047Z,184.00
2018-05-17T09:00:00.213Z,158.43
2018-05-17T09:02:29.398Z,104.80
2018-05-17T09:04:59.041Z,94.90
2018-05-17T09:07:28.197Z,100.40
2018-05-17T09:09:57.544Z,81.03
2018-05-17T09:12:26.729Z,79.83
2018-05-17T09:14:55.883Z,65.13
2018-05-17T09:17:25.000Z,46.10
2018-05-17T09:19:54.137Z,38.17
2018-05-17T09:22:23.296Z,43.67
2018-05-17T09:24:52.435Z,63.83
2018-05-17T09:27:21.552Z,46.77
2018-05-17T09:29:50.714Z,41.73
2018-05-17T09:32:19.833Z,64.83
2018-05-17T09:34:48.971Z,84.03
2018-05-17T09:37:18.121Z,84.27
2018-05-17T09:39:47.265Z,90.90
2018-05-17T09:42:16.384Z,126.50
2018-05-17T09:44:45.560Z,153.07
2018-05-17T09:47:14.701Z,129.37
2018-05-17T09:49:43.880Z,194.77
2018-05-17T09:52:12.994Z,105.83
2018-05-17T09:54:42.120Z,107.63
2018-05-17T09:57:11.289Z,102.60
2018-05-17T09:59:40.445Z,107.10
2018-05-17T10:02:09.572Z,129.13
2018-05-17T10:04:38.700Z,135.70
2018-05-17T10:07:07.880Z,203.43
2018-05-17T10:09:37.012Z,86.60
2018-05-17T10:12:06.449Z,69.23
2018-05-17T10:14:35.659Z,47.33
2018-05-17T10:17:04.784Z,42.87
2018-05-17T10:19:33.952Z,53.57
2018-05-17T10:22:03.074Z,56.33
2018-05-17T10:24:32.227Z,52.57
2018-05-17T10:27:01.382Z,37.50
2018-05-17T10:29:30.539Z,38.40
2018-05-17T10:31:59.650Z,31.80
2018-05-17T10:34:28.828Z,34.03
2018-05-17T10:36:57.950Z,39.87
2018-05-17T10:39:27.143Z,80.00
2018-05-17T10:41:56.297Z,39.83
2018-05-17T10:44:25.478Z,41.60
2018-05-17T10:46:54.623Z,54.57
2018-05-17T10:49:23.802Z,56.57
2018-05-17T10:51:52.945Z,43.00
2018-05-17T10:54:22.191Z,62.70
2018-05-17T10:56:51.313Z,42.83
2018-05-17T10:59:20.464Z,43.23
2018-05-17T11:01:49.614Z,57.30
2018-05-17T11:04:18.759Z,49.50
2018-05-17T11:06:47.912Z,54.03
2018-05-17T11:09:17.069Z,47.80
2018-05-17T11:11:46.196Z,46.47
2018-05-17T11:14:15.468Z,44.53
2018-05-17T11:16:44.636Z,43.47
2018-05-17T11:19:13.853Z,40.27
2018-05-17T11:21:42.984Z,40.23
2018-05-17T11:24:12.195Z,45.03
2018-05-17T11:26:41.382Z,41.60
2018-05-17T11:29:10.612Z,40.70
2018-05-17T11:31:39.837Z,56.80
2018-05-17T11:34:09.030Z,39.27
2018-05-17T11:36:38.184Z,38.10
2018-05-17T11:39:07.336Z,37.83
2018-05-17T11:41:36.518Z,37.20
2018-05-17T11:44:05.674Z,33.53
2018-05-17T11:46:34.778Z,33.93
2018-05-17T11:49:03.965Z,37.90
2018-05-17T11:51:33.081Z,39.07
2018-05-17T11:54:02.253Z,36.77
2018-05-17T11:56:31.409Z,37.20
2018-05-17T11:59:00.542Z,32.40
2018-05-17T12:01:29.717Z,35.93
2018-05-17T12:03:58.840Z,34.00
2018-05-17T12:06:27.980Z,38.67
2018-05-17T12:08:57.144Z,36.37
2018-05-17T12:11:26.265Z,39.30
2018-05-17T12:13:55.387Z,43.43
2018-05-17T12:16:24.561Z,39.07
2018-05-17T12:18:53.712Z,43.00
2018-05-17T12:21:22.828Z,42.37
2018-05-17T12:23:51.957Z,48.60
2018-05-17T12:26:21.127Z,48.60
2018-05-17T12:28:50.271Z,50.73
2018-05-17T12:31:19.407Z,61.47
2018-05-17T12:33:48.536Z,78.43
2018-05-17T12:36:17.676Z,43.23
2018-05-17T12:38:46.803Z,57.93
2018-05-17T12:41:15.948Z,51.07
2018-05-17T12:43:45.081Z,58.63
2018-05-17T12:46:14.243Z,70.33
2018-05-17T12:48:43.402Z,50.20
2018-05-17T12:51:12.532Z,93.07
2018-05-17T12:53:41.711Z,43.40
2018-05-17T12:56:10.857Z,39.60
2018-05-17T12:58:40.116Z,39.77
2018-05-17T13:01:09.192Z,39.77
2018-05-17T13:03:38.320Z,38.10
2018-05-17T13:06:07.468Z,36.83
2018-05-17T13:08:36.609Z,34.43
2018-05-17T13:11:05.738Z,32.93
2018-05-17T13:13:34.895Z,33.97
2018-05-17T13:16:04.040Z,33.67
2018-05-17T13:18:33.204Z,34.77
2018-05-17T13:21:02.494Z,33.83
2018-05-17T13:23:31.709Z,34.53
2018-05-17T13:26:00.864Z,35.00
2018-05-17T13:28:29.988Z,36.90
2018-05-17T13:30:59.149Z,36.97
2018-05-17T13:33:28.276Z,38.53
2018-05-17T13:35:57.446Z,41.90
2018-05-17T13:38:26.592Z,46.90
2018-05-17T13:40:55.820Z,43.10
2018-05-17T13:43:24.938Z,57.00
2018-05-17T13:45:54.109Z,49.83
2018-05-17T13:48:23.237Z,43.00
2018-05-17T13:50:52.368Z,41.33
2018-05-17T13:53:21.588Z,39.90
2018-05-17T13:55:50.706Z,36.63
2018-05-17T13:58:19.871Z,37.30
2018-05-17T14:00:49.003Z,37.20
2018-05-17T14:03:18.188Z,36.47
2018-05-17T14:05:47.336Z,36.70
2018-05-17T14:08:16.481Z,38.60
2018-05-17T14:10:45.691Z,36.27
2018-05-17T14:13:14.945Z,36.23
2018-05-17T14:15:44.107Z,39.27
2018-05-17T14:18:13.240Z,40.97
2018-05-17T14:20:42.405Z,38.60
2018-05-17T14:23:11.567Z,38.07
2018-05-17T14:25:40.687Z,36.53
2018-05-17T14:28:09.873Z,33.50
2018-05-17T14:30:39.004Z,35.50
2018-05-17T14:33:08.170Z,35.17
2018-05-17T14:35:37.352Z,35.03
2018-05-17T14:38:06.619Z,35.23
2018-05-17T14:40:35.777Z,34.30
2018-05-17T14:43:04.944Z,31.87
2018-05-17T14:45:34.099Z,34.07
2018-05-17T14:48:03.411Z,34.20
2018-05-17T14:50:32.589Z,34.80
2018-05-17T14:53:01.731Z,34.80
2018-05-17T14:55:30.860Z,38.97
2018-05-17T14:58:00.178Z,34.30
2018-05-17T15:00:29.295Z,33.97
2018-05-17T15:02:58.420Z,34.17
2018-05-17T15:05:27.611Z,34.90
2018-05-17T15:07:56.757Z,34.87
2018-05-17T15:10:25.911Z,33.97
2018-05-17T15:12:55.100Z,36.30
2018-05-17T15:15:24.231Z,35.30
2018-05-17T15:17:53.376Z,33.53
2018-05-17T15:20:22.609Z,32.33
2018-05-17T15:22:51.785Z,32.23
2018-05-17T15:25:20.981Z,32.97
2018-05-17T15:27:50.158Z,30.67
2018-05-17T15:30:19.310Z,31.43
2018-05-17T15:32:48.446Z,32.97
2018-05-17T15:35:17.678Z,34.20
2018-05-17T15:37:46.872Z,34.93
2018-05-17T15:40:16.022Z,35.63
2018-05-17T15:42:45.195Z,34.03
2018-05-17T15:45:14.325Z,36.60
2018-05-17T15:47:43.473Z,34.10
2018-05-17T15:50:12.632Z,33.47
2018-05-17T15:52:41.748Z,33.33
2018-05-17T15:55:10.944Z,33.43
2018-05-17T15:57:40.099Z,32.47
2018-05-17T16:00:09.244Z,30.57
2018-05-17T16:02:38.432Z,31.07
2018-05-17T16:05:07.556Z,31.20
2018-05-17T16:07:36.704Z,32.60
2018-05-17T16:10:05.867Z,31.53
2018-05-17T16:15:26.030Z,29.93
2018-05-17T16:17:54.973Z,30.00
2018-05-17T16:20:24.121Z,29.87
2018-05-17T16:22:53.264Z,29.37
2018-05-17T16:25:22.444Z,31.27
2018-05-17T16:27:51.574Z,28.73
2018-05-17T16:30:20.748Z,28.00
2018-05-17T16:32:49.933Z,30.63
2018-05-17T16:35:19.045Z,27.80
2018-05-17T16:37:48.220Z,28.30
2018-05-17T16:40:17.340Z,28.37
2018-05-17T16:42:46.537Z,27.50
2018-05-17T16:45:15.713Z,27.43
2018-05-17T16:47:44.828Z,27.70
2018-05-17T16:50:13.980Z,27.07
2018-05-17T16:52:43.212Z,30.40
2018-05-17T16:55:12.993Z,28.90
2018-05-17T16:57:42.149Z,27.70
2018-05-17T17:00:11.295Z,27.90
2018-05-17T17:02:40.416Z,27.77
2018-05-17T17:05:09.601Z,30.70
2018-05-17T17:07:38.736Z,28.60
2018-05-17T17:10:07.861Z,27.30
2018-05-17T17:12:37.013Z,27.17
2018-05-17T17:15:06.159Z,25.83
2018-05-17T17:17:35.278Z,26.47
2018-05-17T17:20:04.422Z,27.53
2018-05-17T17:22:33.582Z,27.03
2018-05-17T17:25:02.712Z,27.90
2018-05-17T17:27:31.868Z,27.40
2018-05-17T17:30:01.329Z,28.20
2018-05-17T17:32:30.484Z,27.63
2018-05-17T17:34:59.670Z,30.50
2018-05-17T17:37:28.792Z,30.20
2018-05-17T17:39:57.956Z,29.70
2018-05-17T17:42:27.098Z,29.30
2018-05-17T17:44:56.242Z,28.53
2018-05-17T17:47:25.392Z,29.23
2018-05-17T17:49:54.601Z,29.17
2018-05-17T17:52:23.741Z,29.10
2018-05-17T17:54:52.917Z,27.53
2018-05-17T17:57:22.032Z,26.87
2018-05-17T17:59:51.177Z,26.53
2018-05-17T18:02:20.375Z,27.13
2018-05-17T18:04:49.588Z,26.47
2018-05-17T18:07:18.732Z,25.70
2018-05-17T18:09:47.903Z,24.57
2018-05-17T18:12:17.020Z,23.87
2018-05-17T18:14:46.151Z,22.20
2018-05-17T18:17:15.341Z,21.37
2018-05-17T18:19:44.496Z,21.83
2018-05-17T18:22:13.615Z,19.37
2018-05-17T18:24:42.767Z,19.23
2018-05-17T18:27:11.941Z,20.40
2018-05-17T18:29:41.064Z,19.90
2018-05-17T18:32:10.227Z,20.30
2018-05-17T18:34:39.380Z,19.83
2018-05-17T18:37:08.501Z,20.73
2018-05-17T18:39:37.672Z,19.47
2018-05-17T18:42:06.791Z,18.97
2018-05-17T18:44:35.951Z,17.77
2018-05-17T18:47:05.105Z,19.37
2018-05-17T18:49:34.244Z,18.90
2018-05-17T18:52:03.408Z,20.30
2018-05-17T18:54:32.584Z,20.30
2018-05-17T18:57:01.733Z,24.30
2018-05-17T18:59:30.856Z,24.87
2018-05-17T19:02:00.066Z,26.20
2018-05-17T19:04:29.162Z,23.17
2018-05-17T19:06:58.300Z,23.17
2018-05-17T19:09:27.429Z,22.20
2018-05-17T19:11:56.571Z,22.93
2018-05-17T19:14:25.713Z,25.87
2018-05-17T19:16:54.881Z,33.10
2018-05-17T19:19:24.022Z,35.30
2018-05-17T19:21:53.188Z,33.67
2018-05-17T19:24:22.372Z,30.03
2018-05-17T19:26:51.537Z,26.60
2018-05-17T19:29:20.671Z,24.43
2018-05-17T19:31:49.837Z,26.63
2018-05-17T19:34:18.964Z,26.70
2018-05-17T19:36:48.108Z,24.30
2018-05-17T19:39:17.707Z,24.80
2018-05-17T19:41:46.882Z,24.60
2018-05-17T19:44:15.964Z,23.50
2018-05-17T19:46:45.139Z,24.20
2018-05-17T19:49:14.359Z,25.67
2018-05-17T19:51:43.504Z,27.23
2018-05-17T19:54:12.636Z,29.10
2018-05-17T19:56:41.783Z,32.60
2018-05-17T19:59:10.908Z,26.07
2018-05-17T20:01:40.031Z,26.73
2018-05-17T20:04:09.198Z,24.37
2018-05-17T20:06:38.322Z,25.50
2018-05-17T20:09:07.496Z,25.20
2018-05-17T20:11:36.614Z,26.27
2018-05-17T20:14:05.747Z,28.37
2018-05-17T20:16:34.939Z,29.87
2018-05-17T20:19:04.065Z,27.00
2018-05-17T20:21:33.213Z,26.57
2018-05-17T20:24:02.349Z,24.83
2018-05-17T20:26:31.477Z,26.20
2018-05-17T20:29:00.630Z,28.30
2018-05-17T20:31:29.774Z,30.10
2018-05-17T20:33:58.931Z,29.90
2018-05-17T20:36:28.076Z,28.17
2018-05-17T20:38:57.218Z,26.70
2018-05-17T20:41:26.368Z,26.37
2018-05-17T20:43:55.536Z,33.67
2018-05-17T20:46:24.686Z,37.50
2018-05-17T20:48:53.871Z,44.10
2018-05-17T20:51:22.997Z,37.73
2018-05-17T20:53:52.133Z,32.17
2018-05-17T20:56:21.344Z,29.67
2018-05-17T20:58:50.464Z,29.87
2018-05-17T21:01:19.592Z,29.67
2018-05-17T21:03:48.748Z,34.67
2018-05-17T21:06:18.372Z,45.47
2018-05-17T21:08:47.631Z,54.13
2018-05-17T21:11:16.768Z,60.33
2018-05-17T21:13:45.908Z,55.07
2018-05-17T21:16:15.084Z,49.07
2018-05-17T21:18:44.255Z,48.17
2018-05-17T21:21:13.379Z,44.37
2018-05-17T21:23:42.527Z,43.07
2018-05-17T21:26:11.672Z,43.07
2018-05-17T21:28:40.878Z,52.17
2018-05-17T21:31:10.052Z,86.47
2018-05-17T21:33:39.180Z,94.67
2018-05-17T21:36:08.316Z,103.33
2018-05-17T21:38:37.518Z,113.33
2018-05-17T21:41:06.656Z,107.27
2018-05-17T21:43:35.796Z,99.13
2018-05-17T21:46:04.940Z,81.37
2018-05-17T21:48:34.080Z,78.37
2018-05-17T21:51:03.205Z,65.40
2018-05-17T21:53:32.396Z,62.60
2018-05-17T21:56:01.696Z,72.10
2018-05-17T21:58:31.583Z,77.80
2018-05-17T22:01:00.734Z,81.47
2018-05-17T22:03:29.891Z,82.90
2018-05-17T22:05:59.010Z,76.60
2018-05-17T22:08:28.243Z,83.67
2018-05-17T22:10:57.371Z,88.87
2018-05-17T22:13:26.560Z,85.00
2018-05-17T22:15:55.697Z,70.17
2018-05-17T22:18:24.812Z,68.27
2018-05-17T22:20:53.981Z,67.30
2018-05-17T22:23:23.141Z,63.90
2018-05-17T22:25:52.256Z,68.40
2018-05-17T22:28:21.423Z,70.87
2018-05-17T22:30:50.569Z,68.60
2018-05-17T22:33:19.720Z,69.57
2018-05-17T22:35:48.932Z,64.57
2018-05-17T22:38:18.100Z,64.10
2018-05-17T22:40:47.215Z,70.37
2018-05-17T22:43:16.337Z,80.00
2018-05-17T22:45:45.484Z,96.77
2018-05-17T22:48:14.612Z,100.87
2018-05-17T22:50:43.757Z,103.17
2018-05-17T22:53:12.897Z,99.53
2018-05-17T22:55:42.034Z,56.27
2018-05-17T22:58:16.860Z,33.50
2018-05-17T23:00:46.085Z,43.73
2018-05-17T23:03:15.352Z,59.10
2018-05-17T23:05:44.484Z,74.10
2018-05-17T23:08:13.624Z,73.53
2018-05-17T23:10:42.800Z,130.30
2018-05-17T23:13:11.925Z,149.70
2018-05-17T23:15:41.081Z,118.07
2018-05-17T23:18:10.222Z,93.70
2018-05-17T23:20:39.376Z,69.47
2018-05-17T23:23:08.554Z,54.57
2018-05-17T23:25:37.692Z,38.03
2018-05-17T23:28:06.840Z,32.47
2018-05-17T23:30:35.973Z,34.47
2018-05-17T23:33:05.131Z,33.87
2018-05-17T23:35:34.735Z,27.53
2018-05-17T23:38:03.904Z,28.40
2018-05-17T23:40:39.028Z,26.40
2018-05-17T23:43:08.168Z,26.70
2018-05-17T23:45:37.288Z,28.67
2018-05-17T23:48:06.421Z,33.83
2018-05-17T23:50:35.594Z,33.00
2018-05-17T23:53:04.700Z,35.33
2018-05-17T23:55:33.872Z,37.57
2018-05-17T23:58:03.024Z,40.27
